FBU743 KMIA-LFPO
Flight info
| Callsign | FBU743 |
|---|---|
| Flight time | N/A |
| Altitude | 37000 |
| Route | FOLZZ3 SNAGY/M085F370 M203 SELIM DCT RAFIN/M085F390 DCT 45N050W 47N040W 49N030W 51N020W DCT DINIM DCT ELSOX DCT TAKAS/N0493F390 DCT ALUTA DCT DEGEX DCT KORER UN482 ANG/N0481F270 UN482 DEKJA/N0489F280 UN482 NIMER DCT CAD |
| Aircraft | A359/H-SDE2E3GHIJ1J3J4J5LM1ORWXY/LB1D1 |
Departure
| Time | 2026-05-04 18:30 |
|---|---|
| Airport | Miami International Airport (KMIA) |
Arrival
| Time | N/A |
|---|---|
| Airport | Paris-Orly Airport (LFPO) |
| Time | Latitude | Longitude | Altitude | Speed | Heading |
|---|---|---|---|---|---|
| 2026-05-04 17:52 | 25.79209 | -80.28276 | 28 ft | 0 kts | 78° |
| 2026-05-04 18:19 | 25.79207 | -80.28290 | 27 ft | 4 kts | 97° |
| 2026-05-04 18:19 | 25.79218 | -80.28312 | 24 ft | 4 kts | 117° |
| 2026-05-04 18:19 | 25.79222 | -80.28332 | 25 ft | 4 kts | 101° |
| 2026-05-04 18:20 | 25.79232 | -80.28356 | 32 ft | 4 kts | 151° |
| 2026-05-04 18:20 | 25.79252 | -80.28358 | 32 ft | 4 kts | 219° |
| 2026-05-04 18:20 | 25.79272 | -80.28338 | 31 ft | 4 kts | 223° |
| 2026-05-04 18:20 | 25.79279 | -80.28330 | 31 ft | 0 kts | 223° |
| 2026-05-04 18:23 | 25.79276 | -80.28334 | 26 ft | 4 kts | 223° |
| 2026-05-04 18:23 | 25.79235 | -80.28377 | 27 ft | 11 kts | 219° |
| 2026-05-04 18:24 | 25.79165 | -80.28422 | 27 ft | 9 kts | 232° |
| 2026-05-04 18:24 | 25.79179 | -80.28513 | 26 ft | 15 kts | 300° |
| 2026-05-04 18:24 | 25.79220 | -80.28594 | 25 ft | 7 kts | 298° |
| 2026-05-04 18:24 | 25.79247 | -80.28648 | 24 ft | 9 kts | 299° |
| 2026-05-04 18:25 | 25.79284 | -80.28719 | 22 ft | 12 kts | 299° |
| 2026-05-04 18:25 | 25.79326 | -80.28803 | 22 ft | 12 kts | 299° |
| 2026-05-04 18:25 | 25.79365 | -80.28880 | 25 ft | 10 kts | 300° |
| 2026-05-04 18:25 | 25.79399 | -80.28946 | 27 ft | 10 kts | 299° |
| 2026-05-04 18:26 | 25.79435 | -80.29017 | 25 ft | 11 kts | 300° |
| 2026-05-04 18:26 | 25.79474 | -80.29094 | 24 ft | 12 kts | 300° |
| 2026-05-04 18:26 | 25.79514 | -80.29171 | 26 ft | 11 kts | 300° |
| 2026-05-04 18:26 | 25.79549 | -80.29238 | 28 ft | 11 kts | 300° |
| 2026-05-04 18:27 | 25.79589 | -80.29315 | 29 ft | 12 kts | 300° |
| 2026-05-04 18:27 | 25.79636 | -80.29407 | 26 ft | 15 kts | 300° |
| 2026-05-04 18:27 | 25.79690 | -80.29513 | 27 ft | 16 kts | 299° |
| 2026-05-04 18:27 | 25.79746 | -80.29626 | 22 ft | 18 kts | 299° |
| 2026-05-04 18:28 | 25.79803 | -80.29739 | 19 ft | 14 kts | 299° |
| 2026-05-04 18:28 | 25.79851 | -80.29832 | 21 ft | 14 kts | 300° |
| 2026-05-04 18:28 | 25.79899 | -80.29927 | 21 ft | 15 kts | 300° |
| 2026-05-04 18:28 | 25.79952 | -80.30029 | 22 ft | 16 kts | 300° |
| 2026-05-04 18:29 | 25.80012 | -80.30118 | 23 ft | 13 kts | 337° |
| 2026-05-04 18:29 | 25.80071 | -80.30077 | 22 ft | 11 kts | 81° |
| 2026-05-04 18:29 | 25.80074 | -80.30049 | 22 ft | 2 kts | 86° |
| 2026-05-04 18:29 | 25.80086 | -80.29784 | 20 ft | 68 kts | 88° |
| 2026-05-04 18:30 | 25.80166 | -80.27877 | 138 ft | 164 kts | 85° |
| 2026-05-04 18:30 | 25.80182 | -80.26657 | 914 ft | 157 kts | 90° |
| 2026-05-04 18:30 | 25.79973 | -80.25404 | 1304 ft | 177 kts | 102° |
| 2026-05-04 18:31 | 25.79507 | -80.24075 | 1514 ft | 192 kts | 109° |
| 2026-05-04 18:31 | 25.78919 | -80.22681 | 1760 ft | 207 kts | 112° |
| 2026-05-04 18:31 | 25.78258 | -80.21188 | 1929 ft | 226 kts | 112° |
| 2026-05-04 18:31 | 25.77535 | -80.19567 | 2123 ft | 243 kts | 112° |
| 2026-05-04 18:32 | 25.76734 | -80.17849 | 2385 ft | 257 kts | 115° |
| 2026-05-04 18:32 | 25.75865 | -80.16085 | 2843 ft | 264 kts | 116° |
| 2026-05-04 18:32 | 25.74966 | -80.14268 | 3222 ft | 272 kts | 114° |
| 2026-05-04 18:32 | 25.74333 | -80.12303 | 3741 ft | 270 kts | 95° |
| 2026-05-04 18:33 | 25.74478 | -80.10262 | 4187 ft | 266 kts | 68° |
| 2026-05-04 18:33 | 25.75401 | -80.08502 | 4590 ft | 264 kts | 48° |
| 2026-05-04 18:33 | 25.76615 | -80.06946 | 4965 ft | 270 kts | 45° |
| 2026-05-04 18:33 | 25.77883 | -80.05390 | 5394 ft | 274 kts | 45° |
| 2026-05-04 18:34 | 25.79172 | -80.03799 | 5807 ft | 279 kts | 45° |
| 2026-05-04 18:34 | 25.80453 | -80.02196 | 6241 ft | 284 kts | 45° |
| 2026-05-04 18:34 | 25.81773 | -80.00533 | 6635 ft | 289 kts | 45° |
| 2026-05-04 18:34 | 25.83108 | -79.98847 | 7125 ft | 291 kts | 46° |
| 2026-05-04 18:35 | 25.84449 | -79.97144 | 7563 ft | 295 kts | 46° |
| 2026-05-04 18:35 | 25.85808 | -79.95420 | 8024 ft | 298 kts | 46° |
| 2026-05-04 18:35 | 25.87180 | -79.93676 | 8478 ft | 302 kts | 46° |
| 2026-05-04 18:35 | 25.88566 | -79.91912 | 8923 ft | 305 kts | 45° |
| 2026-05-04 18:36 | 25.89971 | -79.90125 | 9379 ft | 308 kts | 45° |
| 2026-05-04 18:36 | 25.91390 | -79.88320 | 9826 ft | 313 kts | 45° |
| 2026-05-04 18:36 | 25.92835 | -79.86481 | 10154 ft | 321 kts | 45° |
| 2026-05-04 18:36 | 25.94333 | -79.84577 | 10345 ft | 333 kts | 45° |
| 2026-05-04 18:37 | 25.95887 | -79.82600 | 10562 ft | 346 kts | 45° |
| 2026-05-04 18:37 | 25.97494 | -79.80551 | 10784 ft | 358 kts | 45° |
| 2026-05-04 18:37 | 25.99156 | -79.78434 | 11046 ft | 369 kts | 46° |
| 2026-05-04 18:37 | 26.00863 | -79.76252 | 11246 ft | 380 kts | 46° |
| 2026-05-04 18:38 | 26.02620 | -79.74007 | 11408 ft | 390 kts | 46° |
| 2026-05-04 18:38 | 26.04417 | -79.71711 | 11654 ft | 397 kts | 46° |
| 2026-05-04 18:38 | 26.06237 | -79.69383 | 11991 ft | 401 kts | 46° |
| 2026-05-04 18:38 | 26.08071 | -79.67036 | 12346 ft | 404 kts | 46° |
| 2026-05-04 18:39 | 26.09916 | -79.64663 | 12695 ft | 407 kts | 47° |
| 2026-05-04 18:39 | 26.11652 | -79.62150 | 13058 ft | 411 kts | 51° |
| 2026-05-04 18:39 | 26.13320 | -79.59548 | 13401 ft | 415 kts | 52° |
| 2026-05-04 18:39 | 26.14988 | -79.56914 | 13829 ft | 418 kts | 52° |
| 2026-05-04 18:40 | 26.16669 | -79.54256 | 14264 ft | 421 kts | 52° |
| 2026-05-04 18:40 | 26.18364 | -79.51580 | 14713 ft | 424 kts | 52° |
| 2026-05-04 18:40 | 26.20074 | -79.48881 | 15077 ft | 429 kts | 52° |
| 2026-05-04 18:40 | 26.21798 | -79.46160 | 15487 ft | 431 kts | 52° |
| 2026-05-04 18:41 | 26.23534 | -79.43419 | 15912 ft | 434 kts | 52° |
| 2026-05-04 18:41 | 26.25280 | -79.40662 | 16306 ft | 437 kts | 52° |
| 2026-05-04 18:41 | 26.27047 | -79.37886 | 16708 ft | 440 kts | 51° |
| 2026-05-04 18:41 | 26.29024 | -79.35292 | 17089 ft | 440 kts | 41° |
| 2026-05-04 18:42 | 26.31393 | -79.33154 | 17506 ft | 437 kts | 30° |
| 2026-05-04 18:42 | 26.33938 | -79.31289 | 17893 ft | 439 kts | 28° |
| 2026-05-04 18:42 | 26.36527 | -79.29461 | 18296 ft | 442 kts | 28° |
| 2026-05-04 18:42 | 26.39134 | -79.27622 | 18620 ft | 445 kts | 28° |
| 2026-05-04 18:43 | 26.41750 | -79.25769 | 18977 ft | 447 kts | 28° |
| 2026-05-04 18:43 | 26.44378 | -79.23903 | 19346 ft | 449 kts | 28° |
| 2026-05-04 18:43 | 26.47017 | -79.22024 | 19719 ft | 451 kts | 28° |
| 2026-05-04 18:43 | 26.49671 | -79.20131 | 20078 ft | 454 kts | 28° |
| 2026-05-04 18:44 | 26.52337 | -79.18228 | 20454 ft | 456 kts | 28° |
| 2026-05-04 18:44 | 26.53242 | -79.17582 | 20566 ft | 457 kts | 28° |
| 2026-05-04 18:44 | 26.57712 | -79.14388 | 21214 ft | 461 kts | 28° |
| 2026-05-04 18:44 | 26.60420 | -79.12451 | 21574 ft | 463 kts | 28° |
| 2026-05-04 18:45 | 26.63141 | -79.10504 | 21946 ft | 466 kts | 28° |
| 2026-05-04 18:45 | 26.65879 | -79.08543 | 22313 ft | 468 kts | 28° |
| 2026-05-04 18:45 | 26.68630 | -79.06572 | 22673 ft | 471 kts | 28° |
| 2026-05-04 18:45 | 26.71397 | -79.04588 | 23039 ft | 474 kts | 28° |
| 2026-05-04 18:46 | 26.74177 | -79.02593 | 23403 ft | 476 kts | 28° |
| 2026-05-04 18:46 | 26.76976 | -79.00585 | 23745 ft | 479 kts | 28° |
| 2026-05-04 18:46 | 26.78838 | -78.99247 | 23968 ft | 481 kts | 28° |
| 2026-05-04 18:46 | 26.81659 | -78.97220 | 24321 ft | 483 kts | 28° |
| 2026-05-04 18:47 | 26.84493 | -78.95182 | 24670 ft | 485 kts | 28° |
| 2026-05-04 18:47 | 26.87334 | -78.93139 | 25040 ft | 487 kts | 28° |
| 2026-05-04 18:47 | 26.91118 | -78.90415 | 25509 ft | 490 kts | 27° |
| 2026-05-04 18:47 | 26.93988 | -78.88347 | 25871 ft | 492 kts | 27° |
| 2026-05-04 18:48 | 26.96872 | -78.86268 | 26219 ft | 494 kts | 27° |
| 2026-05-04 18:48 | 26.98826 | -78.84859 | 26465 ft | 495 kts | 27° |
| 2026-05-04 18:48 | 27.01731 | -78.82762 | 26809 ft | 498 kts | 27° |
| 2026-05-04 18:48 | 27.04647 | -78.80657 | 27171 ft | 500 kts | 27° |
| 2026-05-04 18:49 | 27.07583 | -78.78536 | 27475 ft | 503 kts | 27° |
| 2026-05-04 18:49 | 27.10534 | -78.76403 | 27817 ft | 505 kts | 26° |
| 2026-05-04 18:49 | 27.13494 | -78.74262 | 28158 ft | 507 kts | 26° |
| 2026-05-04 18:49 | 27.16466 | -78.72110 | 28492 ft | 510 kts | 26° |
| 2026-05-04 18:50 | 27.19453 | -78.69946 | 28810 ft | 512 kts | 26° |
| 2026-05-04 18:50 | 27.22448 | -78.67775 | 29119 ft | 514 kts | 26° |
| 2026-05-04 18:50 | 27.25460 | -78.65591 | 29438 ft | 516 kts | 26° |
| 2026-05-04 18:50 | 27.28478 | -78.63398 | 29741 ft | 518 kts | 26° |
| 2026-05-04 18:51 | 27.31503 | -78.61166 | 30033 ft | 521 kts | 26° |
| 2026-05-04 18:51 | 27.34489 | -78.58946 | 30272 ft | 523 kts | 26° |
| 2026-05-04 18:51 | 27.37569 | -78.56655 | 30508 ft | 525 kts | 26° |
| 2026-05-04 18:51 | 27.40579 | -78.54414 | 30738 ft | 527 kts | 27° |
| 2026-05-04 18:52 | 27.43642 | -78.52133 | 30933 ft | 529 kts | 27° |
| 2026-05-04 18:52 | 27.46712 | -78.49847 | 31172 ft | 530 kts | 27° |
| 2026-05-04 18:52 | 27.49793 | -78.47551 | 31389 ft | 532 kts | 27° |
| 2026-05-04 18:52 | 27.52882 | -78.45246 | 31595 ft | 533 kts | 27° |
| 2026-05-04 18:53 | 27.55976 | -78.42937 | 31903 ft | 533 kts | 27° |
| 2026-05-04 18:53 | 27.59063 | -78.40631 | 32251 ft | 532 kts | 27° |
| 2026-05-04 18:53 | 27.62152 | -78.38322 | 32475 ft | 533 kts | 27° |
| 2026-05-04 18:53 | 27.65243 | -78.36011 | 32749 ft | 533 kts | 27° |
| 2026-05-04 18:54 | 27.68329 | -78.33702 | 33050 ft | 532 kts | 27° |
| 2026-05-04 18:54 | 27.71408 | -78.31396 | 33332 ft | 531 kts | 27° |
| 2026-05-04 18:54 | 27.74485 | -78.29090 | 33610 ft | 531 kts | 27° |
| 2026-05-04 18:54 | 27.77561 | -78.26784 | 33877 ft | 530 kts | 27° |
| 2026-05-04 18:55 | 27.80631 | -78.24481 | 34126 ft | 530 kts | 27° |
| 2026-05-04 18:55 | 27.86773 | -78.19869 | 34532 ft | 530 kts | 27° |
| 2026-05-04 18:55 | 27.89847 | -78.17558 | 34686 ft | 531 kts | 27° |
| 2026-05-04 18:56 | 27.92926 | -78.15242 | 34871 ft | 532 kts | 27° |
| 2026-05-04 18:56 | 27.96005 | -78.12924 | 35048 ft | 532 kts | 27° |
| 2026-05-04 18:56 | 27.99084 | -78.10604 | 35216 ft | 532 kts | 27° |
| 2026-05-04 18:56 | 28.02162 | -78.08283 | 35388 ft | 532 kts | 27° |
| 2026-05-04 18:57 | 28.05243 | -78.05959 | 35542 ft | 532 kts | 27° |
| 2026-05-04 18:57 | 28.08325 | -78.03632 | 35695 ft | 533 kts | 27° |
| 2026-05-04 18:57 | 28.11409 | -78.01302 | 35846 ft | 533 kts | 27° |
| 2026-05-04 18:57 | 28.14492 | -77.98971 | 36051 ft | 533 kts | 27° |
| 2026-05-04 18:58 | 28.17575 | -77.96638 | 36197 ft | 533 kts | 27° |
| 2026-05-04 18:58 | 28.20660 | -77.94303 | 36302 ft | 534 kts | 27° |
| 2026-05-04 18:58 | 28.26850 | -77.89612 | 36517 ft | 535 kts | 27° |
| 2026-05-04 18:59 | 28.29945 | -77.87263 | 36662 ft | 535 kts | 27° |
| 2026-05-04 18:59 | 28.33041 | -77.84912 | 36788 ft | 535 kts | 27° |
| 2026-05-04 18:59 | 28.36135 | -77.82561 | 36921 ft | 536 kts | 27° |
| 2026-05-04 18:59 | 28.39234 | -77.80205 | 37021 ft | 536 kts | 27° |
| 2026-05-04 19:00 | 28.45462 | -77.75466 | 37079 ft | 541 kts | 27° |
| 2026-05-04 19:00 | 28.51747 | -77.70676 | 37078 ft | 546 kts | 27° |
| 2026-05-04 19:01 | 28.58082 | -77.65839 | 37078 ft | 550 kts | 28° |
| 2026-05-04 19:01 | 28.64450 | -77.60970 | 37078 ft | 553 kts | 28° |
| 2026-05-04 19:02 | 28.70836 | -77.56080 | 37086 ft | 554 kts | 28° |
| 2026-05-04 19:02 | 28.77236 | -77.51172 | 37083 ft | 554 kts | 28° |
| 2026-05-04 19:03 | 28.83638 | -77.46255 | 37086 ft | 555 kts | 28° |
| 2026-05-04 19:03 | 28.90036 | -77.41333 | 37089 ft | 555 kts | 28° |
| 2026-05-04 19:04 | 28.96434 | -77.36404 | 37096 ft | 555 kts | 28° |
| 2026-05-04 19:04 | 29.02813 | -77.31482 | 37097 ft | 552 kts | 28° |
| 2026-05-04 19:05 | 29.09179 | -77.26564 | 37088 ft | 552 kts | 28° |
| 2026-05-04 19:05 | 29.15538 | -77.21644 | 37085 ft | 552 kts | 28° |
| 2026-05-04 19:06 | 29.21906 | -77.16710 | 37127 ft | 553 kts | 28° |
| 2026-05-04 19:06 | 29.28278 | -77.11763 | 37098 ft | 553 kts | 28° |
| 2026-05-04 19:07 | 29.34598 | -77.06850 | 37103 ft | 553 kts | 28° |
| 2026-05-04 19:07 | 29.40959 | -77.01897 | 37103 ft | 553 kts | 28° |
| 2026-05-04 19:08 | 29.47318 | -76.96939 | 37139 ft | 553 kts | 28° |
| 2026-05-04 19:08 | 29.53674 | -76.91975 | 37102 ft | 552 kts | 28° |
| 2026-05-04 19:09 | 29.59963 | -76.86884 | 37102 ft | 557 kts | 34° |
| 2026-05-04 19:09 | 29.65429 | -76.80472 | 37109 ft | 565 kts | 44° |